Time;durP1;ratioP1;P1;durP2;ratioP2;P2;SDS_P1;SDS_P2;PMS_P1;PMS_P2;Temp;Humidity;BMP_temperature;BMP_pressure;BME280_temperature;BME280_humidity;BME280_pressure;Samples;Min_cycle;Max_cycle;Signal;HPM_P1;HPM_P2
2022/09/16 00:01:51;;;;;;;6.60;4.50;;;;;;;16.79;92.21;96303.05;110035;1247;72180;-65
2022/09/16 00:04:20;;;;;;;;;;;;;;;16.81;91.40;96301.98;110017;1247;68756;-66
2022/09/16 00:06:51;;;;;;;7.10;4.90;;;;;;;16.84;91.61;96307.83;109783;1251;67982;-66
2022/09/16 00:09:21;;;;;;;7.80;5.10;;;;;;;16.84;91.68;96316.48;110029;1247;59688;-66
2022/09/16 00:11:50;;;;;;;7.30;5.20;;;;;;;16.82;91.92;96316.55;109791;1249;59718;-66
2022/09/16 00:14:19;;;;;;;9.10;5.90;;;;;;;16.79;91.86;96321.92;109994;1247;71624;-66
2022/09/16 00:16:49;;;;;;;7.30;4.60;;;;;;;16.80;91.57;96320.55;110005;1247;69495;-66
2022/09/16 00:19:19;;;;;;;7.80;4.70;;;;;;;16.80;92.05;96325.83;110010;1247;69444;-66
2022/09/16 00:21:50;;;;;;;7.10;4.20;;;;;;;16.85;91.19;96331.02;110078;1247;59751;-66
2022/09/16 00:24:20;;;;;;;6.20;4.30;;;;;;;16.86;90.83;96331.56;110033;1248;59707;-66
2022/09/16 00:26:51;;;;;;;5.90;3.60;;;;;;;16.87;90.59;96329.34;110063;1247;71376;-66
2022/09/16 00:29:22;;;;;;;6.50;3.50;;;;;;;16.93;89.74;96330.75;110104;1247;69468;-66
2022/09/16 00:31:51;;;;;;;;;;;;;;;17.05;88.62;96328.77;110022;1247;69434;-66
2022/09/16 00:34:21;;;;;;;4.80;2.90;;;;;;;17.09;88.44;96321.96;109919;1248;59708;-65
2022/09/16 00:36:51;;;;;;;6.00;3.40;;;;;;;17.17;87.51;96317.05;110038;1247;59665;-67
2022/09/16 00:39:21;;;;;;;5.80;3.40;;;;;;;17.22;87.28;96308.35;110005;1247;71551;-67
2022/09/16 00:41:52;;;;;;;6.30;3.40;;;;;;;17.22;87.35;96307.25;109989;1247;68594;-67
2022/09/16 00:44:53;;;;;;;6.00;3.40;;;;;;;17.20;87.51;96313.98;109987;1247;68465;-67
2022/09/16 00:47:36;;;;;;;5.60;3.30;;;;;;;17.21;87.08;96317.40;110010;1247;59690;-67
2022/09/16 00:50:20;;;;;;;5.60;3.20;;;;;;;17.21;87.31;96319.02;110060;1247;59676;-67
2022/09/16 00:52:52;;;;;;;6.00;2.80;;;;;;;17.25;86.49;96323.31;110059;1247;70046;-67
2022/09/16 00:55:30;;;;;;;5.60;2.90;;;;;;;17.24;86.56;96320.87;110008;1247;68632;-67
2022/09/16 00:58:18;;;;;;;4.90;2.90;;;;;;;17.29;86.03;96319.98;110029;1247;69716;-66
2022/09/16 01:00:50;;;;;;;4.50;2.80;;;;;;;17.31;86.22;96318.00;110082;1247;59732;-67
2022/09/16 01:03:21;;;;;;;8.20;3.10;;;;;;;17.26;86.65;96320.15;110023;1247;59690;-67
2022/09/16 01:05:52;;;;;;;5.20;3.20;;;;;;;17.23;86.65;96323.45;110051;1247;70924;-66
2022/09/16 01:08:24;;;;;;;4.00;3.00;;;;;;;17.21;86.52;96324.10;110027;1247;68689;-67
2022/09/16 01:10:56;;;;;;;7.20;2.90;;;;;;;17.24;86.12;96320.54;110101;1247;68647;-67
2022/09/16 01:13:26;;;;;;;4.80;2.50;;;;;;;17.22;86.41;96325.77;110048;1247;59689;-67
2022/09/16 01:15:59;;;;;;;4.70;2.30;;;;;;;17.23;86.34;96326.20;110032;1247;59700;-67
2022/09/16 01:18:48;;;;;;;4.10;2.50;;;;;;;17.20;86.44;96326.56;110028;1247;71520;-67
2022/09/16 01:21:44;;;;;;;4.30;2.50;;;;;;;17.18;86.48;96324.74;109714;1250;68672;-67
2022/09/16 01:24:43;;;;;;;6.00;2.20;;;;;;;17.17;86.67;96329.35;109741;1248;68637;-66
2022/09/16 01:27:49;;;;;;;3.80;2.20;;;;;;;17.13;87.17;96331.66;110045;1247;59722;-67
2022/09/16 01:30:56;;;;;;;4.10;2.20;;;;;;;17.08;87.45;96334.45;110060;1247;59681;-67
2022/09/16 01:33:47;;;;;;;3.20;2.20;;;;;;;17.09;86.80;96336.24;110060;1247;70741;-67
2022/09/16 01:36:21;;;;;;;4.50;2.30;;;;;;;17.07;87.26;96338.59;110081;1247;69457;-66
2022/09/16 01:39:23;;;;;;;4.30;2.00;;;;;;;17.05;87.70;96345.56;110117;1247;69231;-66
2022/09/16 01:42:19;;;;;;;4.60;2.30;;;;;;;17.03;87.71;96339.58;110003;1247;59704;-65
2022/09/16 01:45:15;;;;;;;3.60;2.20;;;;;;;16.97;88.18;96340.40;109895;1248;59837;-67
2022/09/16 01:48:09;;;;;;;4.90;2.20;;;;;;;16.94;88.51;96343.92;110003;1248;71058;-67
2022/09/16 01:50:57;;;;;;;4.90;2.30;;;;;;;16.93;88.78;96343.41;110100;1247;69370;-66
2022/09/16 01:53:32;;;;;;;5.60;2.50;;;;;;;16.90;88.90;96344.87;109985;1247;68610;-66
2022/09/16 01:56:20;;;;;;;2.50;2.10;;;;;;;16.87;89.26;96352.92;110056;1247;59718;-66
2022/09/16 01:59:04;;;;;;;5.50;2.80;;;;;;;16.83;89.59;96354.17;110089;1247;59713;-66
2022/09/16 02:01:41;;;;;;;4.70;2.20;;;;;;;16.76;90.45;96361.82;110024;1247;70766;-65
2022/09/16 02:04:29;;;;;;;5.10;2.40;;;;;;;16.70;91.13;96360.65;110025;1247;68726;-66
2022/09/16 02:07:03;;;;;;;3.10;2.30;;;;;;;16.65;91.66;96363.11;110028;1247;69411;-66
2022/09/16 02:09:40;;;;;;;3.20;2.30;;;;;;;16.57;92.74;96365.63;110080;1247;59708;-65
2022/09/16 02:12:16;;;;;;;5.50;2.80;;;;;;;16.54;93.00;96367.70;110049;1247;59720;-65
2022/09/16 02:14:49;;;;;;;5.30;2.40;;;;;;;16.48;93.80;96363.61;109999;1247;70748;-65
2022/09/16 02:17:24;;;;;;;3.50;2.60;;;;;;;16.47;93.73;96363.05;110013;1248;68544;-65
2022/09/16 02:20:24;;;;;;;5.20;2.80;;;;;;;16.44;94.11;96362.14;110124;1247;69282;-65
2022/09/16 02:23:24;;;;;;;6.60;3.20;;;;;;;16.33;95.49;96369.39;110025;1247;59700;-65
2022/09/16 02:25:56;;;;;;;4.10;2.50;;;;;;;16.29;95.69;96371.91;109953;1247;59664;-65
2022/09/16 02:28:33;;;;;;;6.60;2.90;;;;;;;16.23;96.49;96371.67;110030;1247;71337;-65
2022/09/16 02:31:06;;;;;;;6.10;2.90;;;;;;;16.21;96.62;96381.27;110016;1247;69425;-65
2022/09/16 02:33:44;;;;;;;5.80;3.10;;;;;;;16.15;97.56;96380.12;109991;1247;68951;-66
2022/09/16 02:36:19;;;;;;;5.80;2.80;;;;;;;16.10;98.13;96380.07;109647;1250;59737;-65
2022/09/16 02:39:10;;;;;;;5.10;2.70;;;;;;;16.08;98.45;96381.37;109763;1250;59708;-65
2022/09/16 02:41:40;;;;;;;5.50;2.80;;;;;;;16.01;99.43;96385.20;109942;1248;71521;-65
2022/09/16 02:44:11;;;;;;;6.50;3.00;;;;;;;15.99;99.50;96385.64;109939;1247;69489;-65
2022/09/16 02:47:11;;;;;;;4.80;2.90;;;;;;;15.93;99.91;96384.71;110019;1247;68593;-65
2022/09/16 02:50:02;;;;;;;5.20;2.80;;;;;;;15.90;100.00;96397.92;110011;1247;59737;-66
2022/09/16 02:52:45;;;;;;;4.40;2.80;;;;;;;15.86;100.00;96406.45;110042;1247;59730;-66
2022/09/16 02:55:26;;;;;;;6.00;2.90;;;;;;;15.83;100.00;96413.75;110018;1247;70743;-66
2022/09/16 02:57:56;;;;;;;5.70;3.00;;;;;;;15.83;100.00;96415.67;109995;1247;68596;-65
2022/09/16 03:00:28;;;;;;;4.60;3.40;;;;;;;15.77;100.00;96413.48;109999;1247;69420;-66
2022/09/16 03:02:57;;;;;;;5.10;3.50;;;;;;;15.77;100.00;96415.75;109755;1250;59689;-66
2022/09/16 03:05:28;;;;;;;6.40;3.30;;;;;;;15.76;100.00;96422.04;110050;1247;59602;-66
2022/09/16 03:08:02;;;;;;;4.60;2.90;;;;;;;15.75;100.00;96426.88;110207;1247;71606;-66
2022/09/16 03:10:42;;;;;;;3.20;2.40;;;;;;;15.74;100.00;96430.05;110095;1247;68404;-66
2022/09/16 03:13:21;;;;;;;5.10;3.00;;;;;;;15.68;100.00;96424.33;110047;1247;69397;-66
2022/09/16 03:16:01;;;;;;;5.40;3.00;;;;;;;15.71;100.00;96423.69;110036;1247;59716;-66
2022/09/16 03:18:52;;;;;;;5.60;3.10;;;;;;;15.67;100.00;96421.46;110114;1247;59737;-67
2022/09/16 03:21:44;;;;;;;5.00;2.80;;;;;;;15.63;100.00;96426.59;110036;1247;70445;-67
2022/09/16 03:24:37;;;;;;;6.00;3.00;;;;;;;15.61;100.00;96430.02;110094;1247;69381;-66
2022/09/16 03:27:28;;;;;;;4.70;3.10;;;;;;;15.59;100.00;96434.69;109766;1250;69463;-66
2022/09/16 03:30:06;;;;;;;7.40;3.10;;;;;;;15.61;100.00;96438.86;110069;1247;59766;-65
2022/09/16 03:32:42;;;;;;;5.00;3.00;;;;;;;15.60;100.00;96440.14;110074;1247;59694;-65
2022/09/16 03:35:25;;;;;;;6.20;3.60;;;;;;;15.59;100.00;96445.16;110026;1247;70834;-67
2022/09/16 03:37:57;;;;;;;4.50;3.10;;;;;;;15.60;100.00;96442.94;110055;1247;69614;-68
2022/09/16 03:40:28;;;;;;;7.20;2.90;;;;;;;15.59;100.00;96440.38;110018;1247;68654;-65
2022/09/16 03:42:57;;;;;;;4.80;3.30;;;;;;;15.59;100.00;96439.36;109975;1247;59691;-65
2022/09/16 03:45:26;;;;;;;3.60;2.40;;;;;;;15.60;100.00;96442.91;109982;1247;59684;-65
2022/09/16 03:47:55;;;;;;;5.60;3.30;;;;;;;15.61;100.00;96443.89;110130;1247;70780;-65
2022/09/16 03:50:24;;;;;;;3.60;2.40;;;;;;;15.61;100.00;96447.40;109939;1248;69608;-65
2022/09/16 03:52:53;;;;;;;3.90;3.10;;;;;;;15.61;100.00;96448.97;110191;1247;69212;-66
2022/09/16 03:55:23;;;;;;;5.50;2.70;;;;;;;15.63;100.00;96455.64;109684;1250;59701;-66
2022/09/16 03:57:53;;;;;;;3.70;2.70;;;;;;;15.65;100.00;96460.29;110202;1247;59710;-65
2022/09/16 04:00:23;;;;;;;5.00;2.70;;;;;;;15.66;100.00;96471.42;110117;1247;71411;-66
2022/09/16 04:02:53;;;;;;;4.90;3.00;;;;;;;15.66;100.00;96473.20;110065;1247;68578;-66
2022/09/16 04:05:25;;;;;;;4.20;3.30;;;;;;;15.62;100.00;96472.77;109911;1248;69328;-65
2022/09/16 04:07:55;;;;;;;3.60;2.60;;;;;;;15.61;100.00;96479.89;109942;1248;59689;-65
2022/09/16 04:10:26;;;;;;;5.50;3.50;;;;;;;15.60;100.00;96479.95;109850;1247;59695;-65
2022/09/16 04:12:58;;;;;;;5.50;4.10;;;;;;;15.62;100.00;96474.36;110025;1247;70710;-65
2022/09/16 04:15:37;;;;;;;;;;;;;;;15.63;100.00;96472.16;110084;1247;69391;-65
2022/09/16 04:18:07;;;;;;;5.10;3.60;;;;;;;15.65;100.00;96474.18;110107;1248;68679;-65
2022/09/16 04:20:38;;;;;;;4.40;3.30;;;;;;;15.63;100.00;96481.31;110048;1247;59713;-65
2022/09/16 04:23:09;;;;;;;4.70;3.40;;;;;;;15.61;100.00;96481.80;110011;1250;59698;-66
2022/09/16 04:25:40;;;;;;;7.30;4.30;;;;;;;15.61;100.00;96489.17;109968;1250;71508;-65
2022/09/16 04:28:10;;;;;;;5.80;4.10;;;;;;;15.58;100.00;96487.92;110028;1247;70197;-66
2022/09/16 04:30:40;;;;;;;6.70;3.50;;;;;;;15.58;100.00;96490.45;110024;1247;68690;-66
2022/09/16 04:33:09;;;;;;;5.00;3.60;;;;;;;15.53;100.00;96494.73;110061;1247;59770;-66
2022/09/16 04:35:39;;;;;;;4.90;3.40;;;;;;;15.54;100.00;96485.59;110053;1247;59700;-66
2022/09/16 04:38:08;;;;;;;7.40;4.20;;;;;;;15.54;100.00;96485.89;110059;1247;71446;-66
2022/09/16 04:40:38;;;;;;;6.50;4.30;;;;;;;15.56;100.00;96484.70;110052;1247;69499;-66
2022/09/16 04:43:08;;;;;;;7.20;5.10;;;;;;;15.56;100.00;96481.30;109929;1250;69343;-66
2022/09/16 04:45:38;;;;;;;10.00;6.70;;;;;;;15.57;100.00;96482.09;110023;1247;59687;-66
2022/09/16 04:48:08;;;;;;;12.00;6.60;;;;;;;15.58;100.00;96481.23;110025;1247;59624;-65
2022/09/16 04:50:37;;;;;;;10.70;7.10;;;;;;;15.58;100.00;96481.48;110009;1250;71554;-66
2022/09/16 04:53:08;;;;;;;10.50;6.20;;;;;;;15.57;100.00;96485.59;110100;1247;67883;-66
2022/09/16 04:55:43;;;;;;;7.20;5.30;;;;;;;15.57;100.00;96485.42;109994;1246;69595;-66
2022/09/16 04:58:17;;;;;;;7.10;5.30;;;;;;;15.59;100.00;96484.86;110029;1247;59691;-67
2022/09/16 05:00:47;;;;;;;;;;;;;;;15.63;100.00;96484.75;110039;1247;59740;-65
2022/09/16 05:03:16;;;;;;;8.30;6.00;;;;;;;15.66;100.00;96487.63;110028;1247;71559;-65
2022/09/16 05:05:46;;;;;;;5.60;4.80;;;;;;;15.69;100.00;96495.69;110014;1247;69383;-65
2022/09/16 05:08:16;;;;;;;8.00;5.50;;;;;;;15.73;100.00;96500.23;110018;1247;67487;-66
2022/09/16 05:10:45;;;;;;;5.30;3.80;;;;;;;15.75;100.00;96504.73;110070;1247;59760;-67
2022/09/16 05:13:15;;;;;;;7.10;3.80;;;;;;;15.84;100.00;96508.16;110052;1247;59698;-65
2022/09/16 05:15:45;;;;;;;;;;;;;;;15.96;100.00;96510.42;110073;1247;70610;-66
2022/09/16 05:18:19;;;;;;;5.00;3.50;;;;;;;16.15;100.00;96514.81;109758;1249;68597;-67
2022/09/16 05:20:56;;;;;;;4.50;3.20;;;;;;;16.24;100.00;96511.16;110047;1247;69460;-65
2022/09/16 05:23:26;;;;;;;4.80;3.30;;;;;;;16.46;100.00;96507.00;110079;1247;59734;-65
2022/09/16 05:26:03;;;;;;;4.30;2.60;;;;;;;16.70;100.00;96509.96;109997;1247;59743;-65
2022/09/16 05:28:34;;;;;;;4.10;2.40;;;;;;;16.99;100.00;96508.70;108727;1248;1755983;-62
2022/09/16 05:31:17;;;;;;;4.50;2.40;;;;;;;17.20;100.00;96510.78;110131;1247;68609;-64
2022/09/16 05:33:54;;;;;;;4.00;2.30;;;;;;;17.33;98.27;96508.31;109642;1250;69264;-64
2022/09/16 05:36:25;;;;;;;5.70;2.50;;;;;;;17.60;97.97;96506.54;110035;1247;59779;-65
2022/09/16 05:38:53;;;;;;;4.40;2.30;;;;;;;17.85;96.04;96502.63;110050;1247;59741;-66
2022/09/16 05:41:47;;;;;;;5.20;1.90;;;;;;;17.99;94.30;96510.75;110063;1247;70853;-66
2022/09/16 05:44:15;;;;;;;4.90;1.70;;;;;;;18.22;93.76;96513.81;110023;1247;68738;-66
2022/09/16 05:46:44;;;;;;;2.20;1.40;;;;;;;18.21;91.55;96512.52;110050;1248;70125;-65
2022/09/16 05:49:19;;;;;;;1.90;1.70;;;;;;;18.29;91.72;96508.83;110031;1247;59729;-66
2022/09/16 05:51:49;;;;;;;3.70;1.50;;;;;;;18.50;89.11;96509.28;110131;1247;59749;-67
2022/09/16 05:54:22;;;;;;;3.20;1.10;;;;;;;18.63;88.54;96502.29;110074;1250;71998;-67
2022/09/16 05:56:52;;;;;;;4.10;1.30;;;;;;;18.63;87.73;96502.38;110139;1247;68803;-66
2022/09/16 05:59:23;;;;;;;2.20;1.10;;;;;;;18.63;85.67;96502.71;109984;1247;69889;-66
2022/09/16 06:01:53;;;;;;;1.90;1.00;;;;;;;18.65;86.56;96501.80;109746;1249;59783;-67
2022/09/16 06:04:24;;;;;;;2.50;1.30;;;;;;;18.77;86.06;96506.39;110123;1247;59656;-67
2022/09/16 06:06:55;;;;;;;2.40;1.10;;;;;;;19.00;85.31;96516.88;110059;1247;70826;-67
2022/09/16 06:09:29;;;;;;;3.50;1.50;;;;;;;18.96;85.56;96515.23;109894;1250;69514;-68
2022/09/16 06:11:59;;;;;;;2.70;0.90;;;;;;;18.99;84.85;96514.02;110141;1247;68719;-68
2022/09/16 06:14:33;;;;;;;1.80;0.90;;;;;;;19.22;83.93;96524.98;109895;1248;59703;-67
2022/09/16 06:17:03;;;;;;;3.10;1.50;;;;;;;19.13;82.33;96524.52;110065;1248;59637;-66
2022/09/16 06:19:35;;;;;;;2.40;1.40;;;;;;;19.21;82.56;96525.91;110056;1245;71359;-66
2022/09/16 06:22:05;;;;;;;2.50;0.90;;;;;;;19.47;81.63;96532.15;109734;1247;69401;-67
2022/09/16 06:24:36;;;;;;;3.60;1.50;;;;;;;19.60;80.38;96537.14;109989;1247;68922;-67
2022/09/16 06:27:09;;;;;;;2.40;1.50;;;;;;;19.57;80.62;96536.36;110046;1247;59761;-67
2022/09/16 06:29:39;;;;;;;3.00;1.60;;;;;;;19.57;80.26;96534.49;110162;1247;59644;-67
2022/09/16 06:32:11;;;;;;;2.60;1.20;;;;;;;19.69;79.94;96533.73;109715;1250;72292;-67
2022/09/16 06:34:43;;;;;;;2.80;1.40;;;;;;;19.91;80.11;96533.48;109946;1247;69333;-68
2022/09/16 06:37:13;;;;;;;3.30;1.60;;;;;;;20.27;78.04;96540.05;109903;1247;69413;-66
2022/09/16 06:39:42;;;;;;;;;;;;;;;20.14;77.57;96542.52;110016;1247;59727;-67
2022/09/16 06:42:14;;;;;;;3.40;1.30;;;;;;;20.08;77.35;96544.63;109813;1248;59801;-68
2022/09/16 06:44:45;;;;;;;4.80;1.80;;;;;;;20.21;78.58;96545.59;110035;1247;71509;-67
2022/09/16 06:47:15;;;;;;;2.40;1.40;;;;;;;20.44;76.40;96551.20;110018;1247;68386;-68
2022/09/16 06:49:46;;;;;;;2.40;1.50;;;;;;;20.40;76.32;96550.30;109893;1250;68613;-67
2022/09/16 06:52:16;;;;;;;3.60;1.60;;;;;;;20.50;77.19;96555.90;109845;1250;59682;-66
2022/09/16 06:54:46;;;;;;;2.60;1.30;;;;;;;21.05;75.22;96567.32;110007;1247;59702;-66
2022/09/16 06:57:19;;;;;;;2.60;1.40;;;;;;;21.26;71.50;96572.20;110106;1247;70807;-67
2022/09/16 06:59:50;;;;;;;2.80;1.50;;;;;;;21.92;70.48;96569.19;109923;1247;69260;-68
2022/09/16 07:02:23;;;;;;;1.70;1.30;;;;;;;21.80;67.24;96574.86;109742;1250;67721;-68
2022/09/16 07:04:55;;;;;;;2.40;1.40;;;;;;;22.22;67.06;96574.30;109927;1248;60143;-68
2022/09/16 07:07:30;;;;;;;2.10;1.30;;;;;;;21.94;67.12;96580.99;110078;1247;60067;-67
2022/09/16 07:10:01;;;;;;;3.50;1.20;;;;;;;22.30;68.89;96582.66;109787;1250;71513;-68
2022/09/16 07:12:35;;;;;;;2.20;1.30;;;;;;;22.78;67.94;96582.41;109785;1249;67952;-68
2022/09/16 07:15:10;;;;;;;2.20;1.40;;;;;;;22.95;66.77;96580.05;110002;1247;69268;-68
2022/09/16 07:17:46;;;;;;;1.60;1.30;;;;;;;23.24;62.64;96584.59;109745;1250;59750;-66
2022/09/16 07:20:17;;;;;;;2.90;1.50;;;;;;;22.39;62.69;96586.45;109897;1248;59745;-68
2022/09/16 07:22:49;;;;;;;2.40;1.30;;;;;;;22.91;62.59;96583.75;110064;1247;71604;-66
2022/09/16 07:25:20;;;;;;;1.90;1.30;;;;;;;23.08;61.84;96583.70;109882;1250;69583;-67
2022/09/16 07:27:51;;;;;;;2.10;1.30;;;;;;;23.33;61.97;96575.37;109851;1248;69663;-68
2022/09/16 07:30:28;;;;;;;2.20;1.40;;;;;;;23.67;59.87;96570.04;109707;1251;59766;-66
2022/09/16 07:32:59;;;;;;;2.20;1.40;;;;;;;23.48;59.02;96569.39;109882;1250;59715;-68
2022/09/16 07:35:31;;;;;;;2.70;1.30;;;;;;;23.08;58.65;96571.31;109877;1250;71486;-68
2022/09/16 07:38:02;;;;;;;1.60;1.10;;;;;;;23.61;60.55;96583.70;109747;1250;69286;-66
2022/09/16 07:40:33;;;;;;;2.20;1.30;;;;;;;23.97;59.12;96584.20;109883;1250;68469;-67
2022/09/16 07:43:06;;;;;;;1.70;1.30;;;;;;;24.15;58.20;96583.74;109766;1250;59787;-66
2022/09/16 07:45:35;;;;;;;;;;;;;;;24.49;57.32;96583.37;109743;1250;59652;-67
2022/09/16 07:48:07;;;;;;;1.70;1.40;;;;;;;24.51;54.75;96580.16;109690;1251;70805;-68
2022/09/16 07:50:36;;;;;;;1.50;1.20;;;;;;;24.01;55.02;96584.61;109794;1250;69365;-68
2022/09/16 07:53:08;;;;;;;1.60;1.20;;;;;;;24.26;56.55;96587.35;109770;1251;69413;-69
2022/09/16 07:55:39;;;;;;;2.30;1.40;;;;;;;23.73;54.44;96583.64;109855;1250;59657;-68
2022/09/16 07:58:10;;;;;;;1.90;1.40;;;;;;;23.11;56.51;96586.94;109750;1250;59688;-66
2022/09/16 08:00:42;;;;;;;2.50;1.50;;;;;;;22.75;58.53;96589.46;109762;1250;70749;-67
2022/09/16 08:03:18;;;;;;;2.00;1.60;;;;;;;22.90;58.77;96588.02;109907;1250;68957;-66
2022/09/16 08:05:47;;;;;;;1.80;1.60;;;;;;;22.73;59.06;96587.14;109846;1250;69523;-66
2022/09/16 08:08:16;;;;;;;2.40;1.60;;;;;;;23.04;58.57;96580.44;109730;1250;59747;-65
2022/09/16 08:10:53;;;;;;;2.40;1.90;;;;;;;23.51;56.52;96577.38;109770;1250;59763;-65
2022/09/16 08:13:28;;;;;;;1.90;1.30;;;;;;;23.28;55.75;96571.77;109702;1250;71213;-66
2022/09/16 08:16:02;;;;;;;2.10;1.30;;;;;;;23.79;55.79;96574.65;109862;1250;68834;-66
2022/09/16 08:18:31;;;;;;;2.30;1.30;;;;;;;24.38;53.93;96572.55;109803;1250;69443;-68
2022/09/16 08:21:09;;;;;;;;;;;;;;;24.98;53.18;96574.25;109822;1250;59776;-66
2022/09/16 08:23:38;;;;;;;1.50;1.40;;;;;;;25.94;50.83;96576.27;109751;1251;59771;-66
2022/09/16 08:26:09;;;;;;;1.50;1.40;;;;;;;26.25;48.72;96566.82;109624;1250;72261;-66
2022/09/16 08:28:40;;;;;;;1.50;1.30;;;;;;;25.76;48.29;96559.64;109675;1247;70082;-66
2022/09/16 08:31:25;;;;;;;1.90;1.20;;;;;;;25.23;49.54;96566.41;109988;1247;68659;-67
2022/09/16 08:33:55;;;;;;;1.10;1.00;;;;;;;26.06;47.44;96564.51;109915;1250;59678;-67
2022/09/16 08:36:25;;;;;;;1.40;1.20;;;;;;;26.23;47.03;96567.65;109735;1248;59774;-67
2022/09/16 08:38:55;;;;;;;1.90;1.50;;;;;;;25.50;48.29;96576.63;109854;1249;71487;-68
2022/09/16 08:41:44;;;;;;;1.30;1.20;;;;;;;25.25;48.88;96575.98;110022;1247;70113;-68
2022/09/16 08:44:49;;;;;;;1.30;1.10;;;;;;;26.50;48.03;96572.48;110002;1247;69835;-68
2022/09/16 08:47:42;;;;;;;2.40;0.90;;;;;;;27.48;45.94;96566.86;109701;1250;59776;-67
2022/09/16 08:50:21;;;;;;;1.90;1.00;;;;;;;27.25;44.24;96565.16;109777;1249;59985;-67
2022/09/16 08:52:52;;;;;;;1.60;1.20;;;;;;;26.08;45.67;96558.21;110053;1247;71569;-68
2022/09/16 08:55:32;;;;;;;2.50;1.00;;;;;;;27.30;45.11;96554.80;110012;1248;69846;-67
2022/09/16 08:58:20;;;;;;;2.10;1.10;;;;;;;26.81;43.68;96555.91;109665;1250;69512;-66
2022/09/16 09:00:56;;;;;;;1.80;1.20;;;;;;;25.68;45.24;96560.13;110047;1247;59707;-68
2022/09/16 09:03:40;;;;;;;1.10;0.90;;;;;;;26.10;46.03;96557.23;110056;1247;59706;-66
2022/09/16 09:06:50;;;;;;;1.20;0.90;;;;;;;27.34;44.54;96561.23;109775;1248;70778;-67
2022/09/16 09:09:52;;;;;;;1.70;1.00;;;;;;;28.18;41.18;96566.48;109710;1247;69773;-67
2022/09/16 09:12:47;;;;;;;3.10;1.00;;;;;;;28.12;40.18;96563.92;109984;1247;67576;-68
2022/09/16 09:15:39;;;;;;;1.20;0.90;;;;;;;28.88;40.88;96558.96;109708;1250;59666;-69
2022/09/16 09:18:29;;;;;;;1.50;1.10;;;;;;;29.52;39.06;96565.27;110127;1247;59689;-66
2022/09/16 09:21:20;;;;;;;1.90;1.00;;;;;;;29.46;38.75;96573.23;110048;1247;70785;-67
2022/09/16 09:24:00;;;;;;;1.20;0.80;;;;;;;28.94;38.94;96569.86;110017;1247;67473;-67
2022/09/16 09:26:40;;;;;;;1.00;0.90;;;;;;;29.25;39.21;96570.48;110006;1247;68924;-67
2022/09/16 09:29:34;;;;;;;2.00;1.00;;;;;;;29.10;40.14;96567.70;109979;1247;59696;-67
2022/09/16 09:32:21;;;;;;;1.00;0.70;;;;;;;28.81;40.08;96563.96;110028;1247;59678;-67
2022/09/16 09:35:08;;;;;;;1.40;0.90;;;;;;;28.56;40.45;96563.98;110008;1247;70884;-66
2022/09/16 09:37:36;;;;;;;1.70;1.10;;;;;;;28.34;39.36;96557.24;110015;1247;69429;-68
2022/09/16 09:40:11;;;;;;;1.10;1.00;;;;;;;28.17;38.73;96552.32;110026;1247;67634;-68
2022/09/16 09:42:49;;;;;;;1.90;0.90;;;;;;;28.40;39.70;96549.17;110011;1247;59718;-67
2022/09/16 09:45:25;;;;;;;1.30;0.90;;;;;;;28.46;39.96;96552.22;110114;1247;59705;-68
2022/09/16 09:48:00;;;;;;;1.10;0.80;;;;;;;28.21;40.45;96546.92;110063;1247;71799;-69
2022/09/16 09:50:32;;;;;;;1.20;0.80;;;;;;;28.14;40.91;96539.39;110056;1247;68765;-67
2022/09/16 09:53:10;;;;;;;1.70;1.00;;;;;;;28.49;40.41;96534.14;109998;1247;70072;-68
2022/09/16 09:55:41;;;;;;;2.10;1.30;;;;;;;28.80;40.55;96536.90;110001;1247;59781;-68
2022/09/16 09:58:28;;;;;;;1.80;0.80;;;;;;;29.06;38.35;96539.09;109700;1250;59751;-67
2022/09/16 10:00:57;;;;;;;1.50;1.10;;;;;;;28.92;38.17;96534.44;110000;1247;72214;-67
2022/09/16 10:03:28;;;;;;;2.20;1.20;;;;;;;29.03;38.06;96538.72;110035;1247;69222;-66
2022/09/16 10:05:57;;;;;;;1.60;1.10;;;;;;;29.05;36.52;96541.75;110073;1247;68912;-68
2022/09/16 10:08:43;;;;;;;1.50;1.20;;;;;;;29.11;35.71;96545.23;110010;1247;59795;-68
2022/09/16 10:11:21;;;;;;;2.20;1.30;;;;;;;28.98;38.06;96545.28;110039;1247;60050;-68
2022/09/16 10:13:53;;;;;;;1.50;1.00;;;;;;;28.31;37.62;96533.08;110037;1247;72684;-68
2022/09/16 10:16:26;;;;;;;1.80;1.20;;;;;;;27.92;38.19;96523.96;110024;1247;68507;-68
2022/09/16 10:19:16;;;;;;;1.00;0.80;;;;;;;27.51;40.02;96523.50;110004;1247;69949;-68
2022/09/16 10:21:53;;;;;;;1.20;0.90;;;;;;;28.01;37.90;96526.70;110000;1248;59755;-68
2022/09/16 10:24:35;;;;;;;1.60;0.80;;;;;;;28.59;36.85;96531.55;110029;1247;59674;-68
2022/09/16 10:27:37;;;;;;;1.30;0.80;;;;;;;29.93;37.34;96532.89;110017;1247;70735;-69
2022/09/16 10:30:18;;;;;;;1.80;0.80;;;;;;;31.22;36.23;96525.86;109553;1247;68415;-68
2022/09/16 10:33:13;;;;;;;1.60;0.90;;;;;;;31.65;33.89;96526.92;110003;1247;69404;-68
2022/09/16 10:35:54;;;;;;;0.70;0.70;;;;;;;31.72;33.50;96534.17;110044;1247;59764;-67
2022/09/16 10:38:32;;;;;;;2.00;1.00;;;;;;;31.93;32.91;96531.70;110009;1247;59757;-68
2022/09/16 10:41:18;;;;;;;1.20;0.80;;;;;;;31.51;32.90;96536.55;110059;1247;71765;-68
2022/09/16 10:44:12;;;;;;;0.90;0.70;;;;;;;30.72;34.42;96539.24;109657;1249;69886;-68
2022/09/16 10:47:02;;;;;;;1.10;0.70;;;;;;;31.54;33.10;96538.50;109790;1247;69588;-68
2022/09/16 10:50:04;;;;;;;1.20;0.80;;;;;;;31.77;32.44;96529.71;110002;1247;59757;-67
2022/09/16 10:52:44;;;;;;;1.70;1.20;;;;;;;32.40;31.46;96527.09;109765;1248;59770;-69
2022/09/16 10:55:27;;;;;;;1.80;1.10;;;;;;;32.25;31.42;96518.30;110020;1247;71745;-67
2022/09/16 10:58:17;;;;;;;2.40;1.30;;;;;;;32.26;31.14;96519.64;109766;1250;68556;-68
2022/09/16 11:00:57;;;;;;;2.30;0.80;;;;;;;32.85;30.60;96522.43;109755;1249;69922;-68
2022/09/16 11:03:37;;;;;;;1.80;1.10;;;;;;;32.75;29.98;96522.73;109700;1250;59706;-67
2022/09/16 11:06:25;;;;;;;1.70;0.70;;;;;;;32.90;30.45;96517.02;109800;1250;59749;-67
2022/09/16 11:08:56;;;;;;;0.90;0.70;;;;;;;32.44;31.14;96516.46;109966;1248;71631;-69
2022/09/16 11:11:40;;;;;;;1.40;0.90;;;;;;;31.85;31.97;96517.24;109993;1247;69615;-68
2022/09/16 11:14:46;;;;;;;1.30;1.00;;;;;;;31.30;32.73;96517.69;109748;1251;69905;-68
2022/09/16 11:17:40;;;;;;;1.00;0.80;;;;;;;30.32;33.97;96519.27;109813;1250;59767;-66
2022/09/16 11:20:28;;;;;;;2.00;0.90;;;;;;;29.60;36.07;96512.69;109894;1249;59705;-67
2022/09/16 11:23:18;;;;;;;1.20;0.80;;;;;;;28.76;37.76;96504.63;109855;1248;70899;-67
2022/09/16 11:25:57;;;;;;;1.50;0.90;;;;;;;27.67;39.62;96505.30;109752;1250;69216;-66
2022/09/16 11:28:47;;;;;;;1.50;0.80;;;;;;;26.84;42.04;96504.02;109974;1247;69866;-67
2022/09/16 11:31:43;;;;;;;1.10;0.90;;;;;;;25.86;44.30;96499.64;109929;1248;59704;-66
2022/09/16 11:34:43;;;;;;;1.20;1.00;;;;;;;24.99;46.88;96505.52;110074;1247;59598;-67
2022/09/16 11:37:33;;;;;;;1.40;0.80;;;;;;;24.35;48.49;96502.11;110001;1247;71533;-66
2022/09/16 11:40:34;;;;;;;2.20;1.10;;;;;;;23.93;49.32;96504.35;110216;1246;70154;-65
2022/09/16 11:43:36;;;;;;;1.70;1.10;;;;;;;23.60;50.42;96505.80;109793;1248;69683;-67
2022/09/16 11:46:42;;;;;;;2.00;1.00;;;;;;;23.27;51.92;96504.44;110032;1247;60149;-67
2022/09/16 11:49:25;;;;;;;1.90;1.10;;;;;;;23.08;52.90;96490.23;109881;1250;59713;-66
2022/09/16 11:52:30;;;;;;;2.70;1.30;;;;;;;22.94;52.57;96478.48;109987;1247;72248;-66
2022/09/16 11:55:37;;;;;;;2.80;1.30;;;;;;;22.83;53.38;96473.16;110030;1247;69872;-66
2022/09/16 11:58:18;;;;;;;1.40;1.10;;;;;;;22.83;52.68;96462.84;110028;1247;69428;-66
2022/09/16 12:00:50;;;;;;;1.50;1.00;;;;;;;22.77;54.48;96460.64;109965;1247;59760;-68
2022/09/16 12:03:37;;;;;;;1.80;0.80;;;;;;;22.75;53.98;96465.66;110025;1247;59879;-65
2022/09/16 12:06:17;;;;;;;1.00;0.80;;;;;;;22.69;55.81;96471.46;110081;1247;71579;-66
2022/09/16 12:08:52;;;;;;;;;;;;;;;22.68;57.80;96465.84;110031;1247;68501;-67
2022/09/16 12:11:31;;;;;;;1.10;0.90;;;;;;;22.62;60.57;96463.83;109722;1250;69651;-66
2022/09/16 12:14:18;;;;;;;;;;;;;;;22.56;60.37;96461.59;109909;1248;59745;-66
2022/09/16 12:16:57;;;;;;;1.90;1.30;;;;;;;22.55;57.39;96457.45;109792;1250;59677;-68